Observation data for Denver City on 08/07/2020      Previous  Date  Next       Current Mesonet Observations  Soil Data  Daily Summary Page  Observations in Plain Language
KDVS 070500Z 15005KT 23/16 A3003 RMK A01 T02280163  RH  070%=      5-min Rain = 0
KDVS 070505Z 16005KT 23/16 A3003 RMK A01 T02280163  RH  070%=      5-min Rain = 0
KDVS 070510Z 18004KT 23/16 A3003 RMK A01 T02300162  RH  069%=      5-min Rain = 0
KDVS 070515Z 20004KT 23/17 A3004 RMK A01 T02330166  RH  069%=      5-min Rain = 0
KDVS 070520Z 23004KT 23/17 A3004 RMK A01 T02320171  RH  072%=      5-min Rain = 0
KDVS 070525Z 27005KT 23/17 A3004 RMK A01 T02290173  RH  074%=      5-min Rain = 0
KDVS 070530Z 29005KT 23/17 A3004 RMK A01 T02270174  RH  076%=      5-min Rain = 0
KDVS 070535Z 26003KT 22/17 A3004 RMK A01 T02240174  RH  077%=      5-min Rain = 0
KDVS 070540Z 20004KT 23/17 A3004 RMK A01 T02260168  RH  073%=      5-min Rain = 0
KDVS 070545Z 17007KT 24/16 A3004 RMK A01 T02370158  RH  064%=      5-min Rain = 0
KDVS 070550Z 17007KT 25/15 A3004 RMK A01 T02450152  RH  059%=      5-min Rain = 0
KDVS 070555Z 19006KT 24/16 A3004 RMK A01 T02430156  RH  061%=      5-min Rain = 0
KDVS 070600Z 22006KT 24/17 A3005 RMK A01 T02370165  RH  067%=      5-min Rain = 0
KDVS 070605Z 23006KT 23/17 A3005 RMK A01 T02320168  RH  071%=      5-min Rain = 0
KDVS 070610Z 24006KT 23/17 A3005 RMK A01 T02290169  RH  072%=      5-min Rain = 0
KDVS 070615Z 23006KT 23/17 A3005 RMK A01 T02290169  RH  073%=      5-min Rain = 0
KDVS 070620Z 23006KT 23/17 A3005 RMK A01 T02300167  RH  071%=      5-min Rain = 0
KDVS 070625Z 23007KT 23/17 A3005 RMK A01 T02310168  RH  071%=      5-min Rain = 0
KDVS 070630Z 26006KT 23/17 A3005 RMK A01 T02290170  RH  073%=      5-min Rain = 0
KDVS 070635Z 25005KT 23/17 A3005 RMK A01 T02260170  RH  074%=      5-min Rain = 0
KDVS 070640Z 22005KT 23/17 A3004 RMK A01 T02260169  RH  074%=      5-min Rain = 0
KDVS 070645Z 21006KT 23/17 A3004 RMK A01 T02270167  RH  072%=      5-min Rain = 0
KDVS 070650Z 21006KT 23/16 A3004 RMK A01 T02310163  RH  069%=      5-min Rain = 0
KDVS 070655Z 22006KT 23/17 A3004 RMK A01 T02310165  RH  070%=      5-min Rain = 0
KDVS 070700Z 21008KT 23/17 A3004 RMK A01 T02290165  RH  071%=      5-min Rain = 0
KDVS 070705Z 21008KT 23/16 A3004 RMK A01 T02280164  RH  071%=      5-min Rain = 0
KDVS 070710Z 21008KT 23/16 A3004 RMK A01 T02300163  RH  069%=      5-min Rain = 0
KDVS 070715Z 21008KT 23/16 A3004 RMK A01 T02320162  RH  068%=      5-min Rain = 0
KDVS 070720Z 21008KT 23/16 A3004 RMK A01 T02320162  RH  068%=      5-min Rain = 0
KDVS 070725Z 21008KT 23/16 A3004 RMK A01 T02320161  RH  067%=      5-min Rain = 0
KDVS 070730Z 21007KT 23/16 A3004 RMK A01 T02320162  RH  068%=      5-min Rain = 0
KDVS 070735Z 21007KT 23/16 A3004 RMK A01 T02290164  RH  070%=      5-min Rain = 0
KDVS 070740Z 20006KT 23/16 A3004 RMK A01 T02270164  RH  071%=      5-min Rain = 0
KDVS 070745Z 20007KT 23/16 A3004 RMK A01 T02280164  RH  070%=      5-min Rain = 0
KDVS 070750Z 20007KT 23/16 A3004 RMK A01 T02290164  RH  070%=      5-min Rain = 0
KDVS 070755Z 20008KT 23/16 A3004 RMK A01 T02290164  RH  070%=      5-min Rain = 0
KDVS 070800Z 20007KT 23/16 A3004 RMK A01 T02280164  RH  071%=      5-min Rain = 0
KDVS 070805Z 20007KT 23/17 A3004 RMK A01 T02270165  RH  072%=      5-min Rain = 0
KDVS 070810Z 20007KT 23/17 A3004 RMK A01 T02250166  RH  073%=      5-min Rain = 0
KDVS 070815Z 20007KT 22/17 A3004 RMK A01 T02240166  RH  073%=      5-min Rain = 0
KDVS 070820Z 20007KT 22/17 A3004 RMK A01 T02230166  RH  074%=      5-min Rain = 0
KDVS 070825Z 19008KT 23/16 A3004 RMK A01 T02260164  RH  072%=      5-min Rain = 0
KDVS 070830Z 19010KT 23/16 A3004 RMK A01 T02270164  RH  071%=      5-min Rain = 0
KDVS 070835Z 19010KT 23/16 A3004 RMK A01 T02270163  RH  071%=      5-min Rain = 0
KDVS 070840Z 19011KT 23/16 A3004 RMK A01 T02280163  RH  070%=      5-min Rain = 0
KDVS 070845Z 19010KT 23/16 A3004 RMK A01 T02290163  RH  070%=      5-min Rain = 0
KDVS 070850Z 19010KT 23/16 A3004 RMK A01 T02290163  RH  070%=      5-min Rain = 0
KDVS 070855Z 19009KT 23/16 A3004 RMK A01 T02270163  RH  071%=      5-min Rain = 0
KDVS 070900Z 19009KT 23/16 A3004 RMK A01 T02260164  RH  071%=      5-min Rain = 0
KDVS 070905Z 19009KT 23/16 A3004 RMK A01 T02250164  RH  072%=      5-min Rain = 0
KDVS 070910Z 19008KT 22/17 A3004 RMK A01 T02240165  RH  073%=      5-min Rain = 0
KDVS 070915Z 18009KT 22/17 A3004 RMK A01 T02230165  RH  073%=      5-min Rain = 0
KDVS 070920Z 18008KT 22/17 A3004 RMK A01 T02230165  RH  073%=      5-min Rain = 0
KDVS 070925Z 18007KT 22/16 A3004 RMK A01 T02230164  RH  073%=      5-min Rain = 0
KDVS 070930Z 18007KT 22/17 A3004 RMK A01 T02230165  RH  073%=      5-min Rain = 0
KDVS 070935Z 18007KT 22/17 A3004 RMK A01 T02220165  RH  074%=      5-min Rain = 0
KDVS 070940Z 17007KT 22/17 A3004 RMK A01 T02210165  RH  074%=      5-min Rain = 0
KDVS 070945Z 17007KT 22/17 A3004 RMK A01 T02200166  RH  075%=      5-min Rain = 0
KDVS 070950Z 18006KT 22/17 A3004 RMK A01 T02180166  RH  076%=      5-min Rain = 0
KDVS 070955Z 18007KT 22/17 A3004 RMK A01 T02170167  RH  077%=      5-min Rain = 0
KDVS 071000Z 18007KT 22/17 A3004 RMK A01 T02170168  RH  077%=      5-min Rain = 0
KDVS 071005Z 18007KT 22/17 A3004 RMK A01 T02170168  RH  078%=      5-min Rain = 0
KDVS 071010Z 18007KT 22/17 A3004 RMK A01 T02160167  RH  077%=      5-min Rain = 0
KDVS 071015Z 18007KT 22/17 A3004 RMK A01 T02160167  RH  078%=      5-min Rain = 0
KDVS 071020Z 18007KT 22/17 A3004 RMK A01 T02150166  RH  077%=      5-min Rain = 0
KDVS 071025Z 18007KT 22/17 A3004 RMK A01 T02150166  RH  077%=      5-min Rain = 0
KDVS 071030Z 17007KT 21/17 A3004 RMK A01 T02140166  RH  078%=      5-min Rain = 0
KDVS 071035Z 17007KT 21/17 A3004 RMK A01 T02120166  RH  079%=      5-min Rain = 0
KDVS 071040Z 17007KT 21/17 A3004 RMK A01 T02120166  RH  079%=      5-min Rain = 0
KDVS 071045Z 17008KT 21/17 A3004 RMK A01 T02120165  RH  078%=      5-min Rain = 0
KDVS 071050Z 17008KT 21/16 A3004 RMK A01 T02130164  RH  077%=      5-min Rain = 0
KDVS 071055Z 16007KT 21/16 A3004 RMK A01 T02130164  RH  077%=      5-min Rain = 0
KDVS 071100Z 16007KT 21/16 A3004 RMK A01 T02120164  RH  078%=      5-min Rain = 0
KDVS 071105Z 16005KT 21/16 A3004 RMK A01 T02110164  RH  078%=      5-min Rain = 0
KDVS 071110Z 15005KT 21/17 A3004 RMK A01 T02080165  RH  080%=      5-min Rain = 0
KDVS 071115Z 15005KT 21/17 A3004 RMK A01 T02050166  RH  082%=      5-min Rain = 0
KDVS 071120Z 16005KT 20/17 A3004 RMK A01 T02030166  RH  084%=      5-min Rain = 0
KDVS 071125Z 16005KT 20/17 A3004 RMK A01 T02010166  RH  084%=      5-min Rain = 0
KDVS 071130Z 17006KT 20/17 A3004 RMK A01 T02010167  RH  085%=      5-min Rain = 0
KDVS 071135Z 17005KT 20/17 A3005 RMK A01 T02010166  RH  085%=      5-min Rain = 0
KDVS 071140Z 17004KT 20/17 A3005 RMK A01 T02000166  RH  085%=      5-min Rain = 0
KDVS 071145Z 16004KT 20/17 A3005 RMK A01 T01990166  RH  085%=      5-min Rain = 0
KDVS 071150Z 16003KT 20/17 A3005 RMK A01 T01970166  RH  086%=      5-min Rain = 0
KDVS 071155Z 16003KT 20/17 A3005 RMK A01 T01950166  RH  087%=      5-min Rain = 0
KDVS 071200Z 16003KT 20/17 A3005 RMK A01 T01950167  RH  088%=      5-min Rain = 0
KDVS 071205Z 15004KT 20/17 A3005 RMK A01 T01950166  RH  088%=      5-min Rain = 0
KDVS 071210Z 14004KT 20/17 A3005 RMK A01 T01950166  RH  088%=      5-min Rain = 0
KDVS 071215Z 14004KT 19/17 A3005 RMK A01 T01940166  RH  088%=      5-min Rain = 0
KDVS 071220Z 13004KT 19/17 A3005 RMK A01 T01940166  RH  088%=      5-min Rain = 0
KDVS 071225Z 13004KT 19/17 A3006 RMK A01 T01940167  RH  088%=      5-min Rain = 0
KDVS 071230Z 13005KT 19/17 A3006 RMK A01 T01940168  RH  089%=      5-min Rain = 0
KDVS 071235Z 13004KT 20/17 A3005 RMK A01 T01950170  RH  090%=      5-min Rain = 0
KDVS 071240Z 13005KT 20/17 A3005 RMK A01 T01980171  RH  089%=      5-min Rain = 0
KDVS 071245Z 13005KT 20/17 A3006 RMK A01 T02020171  RH  087%=      5-min Rain = 0
KDVS 071250Z 12004KT 21/17 A3006 RMK A01 T02050171  RH  085%=      5-min Rain = 0
KDVS 071255Z 12005KT 20/17 A3006 RMK A01 T02040171  RH  086%=      5-min Rain = 0
KDVS 071300Z 13005KT 21/17 A3006 RMK A01 T02060172  RH  085%=      5-min Rain = 0
KDVS 071305Z 13005KT 21/17 A3006 RMK A01 T02100171  RH  083%=      5-min Rain = 0
KDVS 071310Z 13004KT 21/17 A3006 RMK A01 T02140170  RH  080%=      5-min Rain = 0
KDVS 071315Z 14005KT 22/17 A3006 RMK A01 T02170169  RH  078%=      5-min Rain = 0
KDVS 071320Z 14006KT 22/17 A3006 RMK A01 T02200168  RH  076%=      5-min Rain = 0
KDVS 071325Z 15007KT 23/17 A3006 RMK A01 T02250166  RH  073%=      5-min Rain = 0
KDVS 071330Z 15007KT 23/17 A3006 RMK A01 T02270167  RH  072%=      5-min Rain = 0
KDVS 071335Z 15008KT 23/17 A3006 RMK A01 T02290167  RH  071%=      5-min Rain = 0
KDVS 071340Z 15008KT 23/17 A3006 RMK A01 T02310167  RH  070%=      5-min Rain = 0
KDVS 071345Z 15009KT 23/17 A3006 RMK A01 T02340165  RH  068%=      5-min Rain = 0
KDVS 071350Z 16010KT 24/16 A3006 RMK A01 T02380164  RH  067%=      5-min Rain = 0
KDVS 071355Z 16010KT 24/16 A3006 RMK A01 T02370161  RH  065%=      5-min Rain = 0
KDVS 071400Z 17009G14KT 23/16 A3007 RMK A01 T02320160  RH  067%=      5-min Rain = 0
KDVS 071405Z 17011KT 24/16 A3007 RMK A01 T02360158  RH  065%=      5-min Rain = 0
KDVS 071410Z 17012KT 24/16 A3007 RMK A01 T02400158  RH  063%=      5-min Rain = 0
KDVS 071415Z 18012KT 24/16 A3008 RMK A01 T02440158  RH  062%=      5-min Rain = 0
KDVS 071420Z 17013KT 25/16 A3008 RMK A01 T02460158  RH  061%=      5-min Rain = 0
KDVS 071425Z 17015G20KT 25/16 A3008 RMK A01 T02460156  RH  060%=      5-min Rain = 0
KDVS 071430Z 17014G19KT 25/16 A3008 RMK A01 T02470158  RH  060%=      5-min Rain = 0
KDVS 071435Z 17015KT 25/16 A3007 RMK A01 T02490159  RH  060%=      5-min Rain = 0
KDVS 071440Z 18013KT 25/16 A3008 RMK A01 T02480162  RH  062%=      5-min Rain = 0
KDVS 071445Z 18014G19KT 25/16 A3008 RMK A01 T02470161  RH  062%=      5-min Rain = 0
KDVS 071450Z 18013KT 25/16 A3008 RMK A01 T02460160  RH  062%=      5-min Rain = 0
KDVS 071455Z 18012KT 25/17 A3008 RMK A01 T02510165  RH  062%=      5-min Rain = 0
KDVS 071500Z 18011G17KT 26/17 A3008 RMK A01 T02550166  RH  061%=      5-min Rain = 0
KDVS 071505Z 18013G18KT 26/17 A3009 RMK A01 T02570168  RH  061%=      5-min Rain = 0
KDVS 071510Z 18013KT 26/17 A3009 RMK A01 T02550168  RH  061%=      5-min Rain = 0
KDVS 071515Z 18014KT 26/17 A3009 RMK A01 T02570168  RH  061%=      5-min Rain = 0
KDVS 071520Z 18013KT 26/17 A3009 RMK A01 T02620169  RH  059%=      5-min Rain = 0
KDVS 071525Z 18014KT 26/17 A3009 RMK A01 T02600168  RH  060%=      5-min Rain = 0
KDVS 071530Z 18013KT 26/17 A3009 RMK A01 T02610170  RH  060%=      5-min Rain = 0
KDVS 071535Z 18013KT 26/17 A3009 RMK A01 T02600169  RH  060%=      5-min Rain = 0
KDVS 071540Z 18012KT 26/17 A3009 RMK A01 T02570168  RH  061%=      5-min Rain = 0
KDVS 071545Z 18011KT 26/17 A3009 RMK A01 T02560171  RH  062%=      5-min Rain = 0
KDVS 071550Z 18012KT 26/17 A3009 RMK A01 T02550169  RH  062%=      5-min Rain = 0
KDVS 071555Z 18012KT 26/17 A3009 RMK A01 T02550170  RH  062%=      5-min Rain = 0
KDVS 071600Z 19012KT 26/17 A3009 RMK A01 T02550171  RH  063%=      5-min Rain = 0
KDVS 071605Z 19011KT 26/17 A3009 RMK A01 T02570173  RH  063%=      5-min Rain = 0
KDVS 071610Z 18013KT 26/17 A3009 RMK A01 T02610174  RH  062%=      5-min Rain = 0
KDVS 071615Z 19013KT 27/18 A3009 RMK A01 T02650175  RH  061%=      5-min Rain = 0
KDVS 071620Z 19013KT 26/17 A3009 RMK A01 T02610173  RH  061%=      5-min Rain = 0
KDVS 071625Z 19013KT 26/17 A3009 RMK A01 T02610173  RH  061%=      5-min Rain = 0
KDVS 071630Z 19012KT 26/18 A3009 RMK A01 T02640176  RH  062%=      5-min Rain = 0
KDVS 071635Z 18012KT 27/18 A3009 RMK A01 T02740177  RH  058%=      5-min Rain = 0
KDVS 071640Z 19014KT 28/17 A3009 RMK A01 T02750174  RH  057%=      5-min Rain = 0
KDVS 071645Z 19013KT 27/17 A3009 RMK A01 T02740174  RH  057%=      5-min Rain = 0
KDVS 071650Z 18013KT 27/17 A3009 RMK A01 T02710172  RH  057%=      5-min Rain = 0
KDVS 071655Z 18012KT 27/17 A3009 RMK A01 T02740174  RH  057%=      5-min Rain = 0
KDVS 071700Z 20013KT 28/17 A3009 RMK A01 T02780174  RH  056%=      5-min Rain = 0
KDVS 071705Z 19013G18KT 28/17 A3009 RMK A01 T02790173  RH  055%=      5-min Rain = 0
KDVS 071710Z 20014KT 28/17 A3009 RMK A01 T02770172  RH  055%=      5-min Rain = 0
KDVS 071715Z 20012KT 28/17 A3009 RMK A01 T02750172  RH  056%=      5-min Rain = 0
KDVS 071720Z 19011KT 28/17 A3009 RMK A01 T02760172  RH  056%=      5-min Rain = 0
KDVS 071725Z 20010KT 28/17 A3009 RMK A01 T02780174  RH  056%=      5-min Rain = 0
KDVS 071730Z 19011KT 28/17 A3009 RMK A01 T02810172  RH  054%=      5-min Rain = 0
KDVS 071735Z 19011KT 28/17 A3009 RMK A01 T02840171  RH  053%=      5-min Rain = 0
KDVS 071740Z 18011KT 29/17 A3009 RMK A01 T02880170  RH  051%=      5-min Rain = 0
KDVS 071745Z 18012KT 29/17 A3008 RMK A01 T02910169  RH  050%=      5-min Rain = 0
KDVS 071750Z 19012KT 30/17 A3008 RMK A01 T03000173  RH  049%=      5-min Rain = 0
KDVS 071755Z 20011KT 30/17 A3008 RMK A01 T03030173  RH  048%=      5-min Rain = 0
KDVS 071800Z 20010G15KT 30/17 A3008 RMK A01 T03040174  RH  048%=      5-min Rain = 0
KDVS 071805Z 19011KT 31/17 A3008 RMK A01 T03130172  RH  045%=      5-min Rain = 0
KDVS 071810Z 19012KT 32/17 A3008 RMK A01 T03190170  RH  043%=      5-min Rain = 0
KDVS 071815Z 20011KT 32/17 A3008 RMK A01 T03200169  RH  042%=      5-min Rain = 0
KDVS 071820Z 20012KT 32/17 A3007 RMK A01 T03200166  RH  042%=      5-min Rain = 0
KDVS 071825Z 20009KT 32/17 A3007 RMK A01 T03200172  RH  043%=      5-min Rain = 0
KDVS 071830Z 20010KT 32/17 A3007 RMK A01 T03220170  RH  042%=      5-min Rain = 0
KDVS 071835Z 19010KT 32/17 A3007 RMK A01 T03230171  RH  042%=      5-min Rain = 0
KDVS 071840Z 19011KT 33/17 A3007 RMK A01 T03270167  RH  040%=      5-min Rain = 0
KDVS 071845Z 19010KT 33/16 A3007 RMK A01 T03270158  RH  038%=      5-min Rain = 0
KDVS 071850Z 18009KT 33/16 A3007 RMK A01 T03270160  RH  038%=      5-min Rain = 0
KDVS 071855Z 19007KT 33/16 A3007 RMK A01 T03310159  RH  038%=      5-min Rain = 0
KDVS 071900Z 20008KT 33/16 A3007 RMK A01 T03340159  RH  037%=      5-min Rain = 0
KDVS 071905Z 18009G14KT 34/16 A3007 RMK A01 T03360160  RH  037%=      5-min Rain = 0
KDVS 071910Z 20011KT 34/16 A3007 RMK A01 T03410160  RH  035%=      5-min Rain = 0
KDVS 071915Z 20010KT 34/16 A3006 RMK A01 T03400157  RH  035%=      5-min Rain = 0
KDVS 071920Z 20007G12KT 34/16 A3006 RMK A01 T03380156  RH  035%=      5-min Rain = 0
KDVS 071925Z 19008G13KT 34/16 A3006 RMK A01 T03420158  RH  035%=      5-min Rain = 0
KDVS 071930Z 19009G14KT 34/15 A3006 RMK A01 T03430154  RH  034%=      5-min Rain = 0
KDVS 071935Z 22010KT 35/15 A3006 RMK A01 T03460146  RH  032%=      5-min Rain = 0
KDVS 071940Z 22009KT 35/14 A3006 RMK A01 T03450144  RH  031%=      5-min Rain = 0
KDVS 071945Z 20008G13KT 35/15 A3006 RMK A01 T03470145  RH  031%=      5-min Rain = 0
KDVS 071950Z 18007G13KT 35/14 A3005 RMK A01 T03470141  RH  030%=      5-min Rain = 0
KDVS 071955Z 19007G12KT 35/15 A3005 RMK A01 T03540148  RH  031%=      5-min Rain = 0
KDVS 072000Z 20008KT 35/14 A3005 RMK A01 T03510143  RH  030%=      5-min Rain = 0
KDVS 072005Z 19009KT 35/14 A3005 RMK A01 T03510140  RH  029%=      5-min Rain = 0
KDVS 072010Z 19007G12KT 35/14 A3005 RMK A01 T03530141  RH  029%=      5-min Rain = 0
KDVS 072015Z 18009G14KT 36/14 A3005 RMK A01 T03550137  RH  028%=      5-min Rain = 0
KDVS 072020Z 21010KT 36/13 A3005 RMK A01 T03550133  RH  027%=      5-min Rain = 0
KDVS 072025Z 18008KT 35/13 A3004 RMK A01 T03530132  RH  028%=      5-min Rain = 0
KDVS 072030Z 19012KT 35/13 A3004 RMK A01 T03540134  RH  028%=      5-min Rain = 0
KDVS 072035Z 22007G13KT 35/13 A3004 RMK A01 T03540132  RH  027%=      5-min Rain = 0
KDVS 072040Z 18008KT 36/14 A3004 RMK A01 T03550136  RH  028%=      5-min Rain = 0
KDVS 072045Z 20008KT 36/14 A3004 RMK A01 T03580138  RH  028%=      5-min Rain = 0
KDVS 072050Z 20009G16KT 36/14 A3004 RMK A01 T03550139  RH  029%=      5-min Rain = 0
KDVS 072055Z 18009KT 36/13 A3003 RMK A01 T03560133  RH  027%=      5-min Rain = 0
KDVS 072100Z 19009KT 36/13 A3003 RMK A01 T03570134  RH  027%=      5-min Rain = 0
KDVS 072105Z 19008G13KT 36/13 A3003 RMK A01 T03560131  RH  027%=      5-min Rain = 0
KDVS 072110Z 20008KT 36/13 A3003 RMK A01 T03580128  RH  026%=      5-min Rain = 0
KDVS 072115Z 21008KT 36/12 A3003 RMK A01 T03610122  RH  025%=      5-min Rain = 0
KDVS 072120Z 19009KT 36/12 A3003 RMK A01 T03610115  RH  024%=      5-min Rain = 0
KDVS 072125Z 21010KT 37/11 A3003 RMK A01 T03660111  RH  022%=      5-min Rain = 0
KDVS 072130Z 19008KT 36/11 A3002 RMK A01 T03630106  RH  022%=      5-min Rain = 0
KDVS 072135Z 19009KT 37/11 A3002 RMK A01 T03650114  RH  023%=      5-min Rain = 0
KDVS 072140Z 20009KT 37/11 A3002 RMK A01 T03650113  RH  023%=      5-min Rain = 0
KDVS 072145Z 19009G14KT 37/11 A3002 RMK A01 T03650111  RH  022%=      5-min Rain = 0
KDVS 072150Z 20009KT 37/11 A3002 RMK A01 T03670106  RH  021%=      5-min Rain = 0
KDVS 072155Z 22008G14KT 36/10 A3002 RMK A01 T03640103  RH  021%=      5-min Rain = 0
KDVS 072200Z 21009G15KT 36/11 A3002 RMK A01 T03620110  RH  023%=      5-min Rain = 0
KDVS 072205Z 19008KT 36/11 A3002 RMK A01 T03640106  RH  022%=      5-min Rain = 0
KDVS 072210Z 20007G12KT 36/10 A3002 RMK A01 T03620104  RH  022%=      5-min Rain = 0
KDVS 072215Z 19008KT 36/10 A3002 RMK A01 T03630103  RH  021%=      5-min Rain = 0
KDVS 072220Z 22008KT 36/10 A3002 RMK A01 T03640096  RH  020%=      5-min Rain = 0
KDVS 072225Z 19008KT 37/10 A3002 RMK A01 T03680099  RH  020%=      5-min Rain = 0
KDVS 072230Z 20004KT 36/09 A3002 RMK A01 T03590092  RH  020%=      5-min Rain = 0
KDVS 072235Z 22005KT 36/09 A3001 RMK A01 T03640094  RH  020%=      5-min Rain = 0
KDVS 072240Z 20008KT 37/09 A3001 RMK A01 T03670090  RH  019%=      5-min Rain = 0
KDVS 072245Z 20006G12KT 36/09 A3001 RMK A01 T03640087  RH  019%=      5-min Rain = 0
KDVS 072250Z 19008KT 36/09 A3001 RMK A01 T03630089  RH  019%=      5-min Rain = 0
KDVS 072255Z 20008KT 36/09 A3001 RMK A01 T03620087  RH  019%=      5-min Rain = 0
KDVS 072300Z 18008KT 37/10 A3001 RMK A01 T03650097  RH  020%=      5-min Rain = 0
KDVS 072305Z 18006KT 36/10 A3001 RMK A01 T03640096  RH  020%=      5-min Rain = 0
KDVS 072310Z 19006KT 36/10 A3001 RMK A01 T03610095  RH  020%=      5-min Rain = 0
KDVS 072315Z 18005KT 36/10 A3001 RMK A01 T03560096  RH  021%=      5-min Rain = 0
KDVS 072320Z 17007KT 36/10 A3001 RMK A01 T03560099  RH  022%=      5-min Rain = 0
KDVS 072325Z 17006KT 36/10 A3001 RMK A01 T03570103  RH  022%=      5-min Rain = 0
KDVS 072330Z 18009KT 36/11 A3001 RMK A01 T03550110  RH  023%=      5-min Rain = 0
KDVS 072335Z 17014KT 35/12 A3001 RMK A01 T03530118  RH  025%=      5-min Rain = 0
KDVS 072340Z 17013KT 35/12 A3001 RMK A01 T03520116  RH  025%=      5-min Rain = 0
KDVS 072345Z 17011KT 35/11 A3001 RMK A01 T03500114  RH  025%=      5-min Rain = 0
KDVS 072350Z 17012KT 35/12 A3001 RMK A01 T03510116  RH  025%=      5-min Rain = 0
KDVS 072355Z 17011G16KT 35/12 A3001 RMK A01 T03500116  RH  025%=      5-min Rain = 0
KDVS 080000Z 17012G17KT 35/12 A3001 RMK A01 T03470119  RH  026%=      5-min Rain = 0
KDVS 080005Z 18014KT 34/13 A3001 RMK A01 T03430125  RH  028%=      5-min Rain = 0
KDVS 080010Z 18013KT 34/12 A3002 RMK A01 T03400124  RH  028%=      5-min Rain = 0
KDVS 080015Z 17012KT 34/12 A3002 RMK A01 T03380124  RH  029%=      5-min Rain = 0
KDVS 080020Z 17013KT 34/12 A3002 RMK A01 T03350124  RH  029%=      5-min Rain = 0
KDVS 080025Z 17014G22KT 33/13 A3002 RMK A01 T03300129  RH  031%=      5-min Rain = 0
KDVS 080030Z 18014G19KT 32/13 A3002 RMK A01 T03240132  RH  032%=      5-min Rain = 0
KDVS 080035Z 19015G20KT 32/14 A3002 RMK A01 T03210137  RH  034%=      5-min Rain = 0
KDVS 080040Z 19017KT 31/14 A3003 RMK A01 T03130139  RH  036%=      5-min Rain = 0
KDVS 080045Z 19016G21KT 31/14 A3003 RMK A01 T03050137  RH  037%=      5-min Rain = 0
KDVS 080050Z 19013KT 30/14 A3003 RMK A01 T03000137  RH  038%=      5-min Rain = 0
KDVS 080055Z 19012KT 30/14 A3003 RMK A01 T02970139  RH  040%=      5-min Rain = 0
KDVS 080100Z 19013KT 30/14 A3003 RMK A01 T02970140  RH  040%=      5-min Rain = 0
KDVS 080105Z 18012KT 30/14 A3003 RMK A01 T03000138  RH  039%=      5-min Rain = 0
KDVS 080110Z 18010KT 30/14 A3003 RMK A01 T03030137  RH  038%=      5-min Rain = 0
KDVS 080115Z 17010KT 31/14 A3004 RMK A01 T03060136  RH  037%=      5-min Rain = 0
KDVS 080120Z 18011KT 31/13 A3004 RMK A01 T03090132  RH  035%=      5-min Rain = 0
KDVS 080125Z 18011KT 31/13 A3003 RMK A01 T03100130  RH  035%=      5-min Rain = 0
KDVS 080130Z 18011G17KT 31/13 A3003 RMK A01 T03100129  RH  034%=      5-min Rain = 0
KDVS 080135Z 18012KT 31/13 A3003 RMK A01 T03100128  RH  034%=      5-min Rain = 0
KDVS 080140Z 18011KT 31/13 A3003 RMK A01 T03110127  RH  034%=      5-min Rain = 0
KDVS 080145Z 19010KT 31/13 A3004 RMK A01 T03090128  RH  035%=      5-min Rain = 0
KDVS 080150Z 20010KT 31/13 A3004 RMK A01 T03050131  RH  036%=      5-min Rain = 0
KDVS 080155Z 19012KT 30/13 A3004 RMK A01 T03040132  RH  036%=      5-min Rain = 0
KDVS 080200Z 19010KT 30/14 A3005 RMK A01 T03010136  RH  038%=      5-min Rain = 0
KDVS 080205Z 20010KT 30/14 A3005 RMK A01 T02980138  RH  039%=      5-min Rain = 0
KDVS 080210Z 19013KT 30/14 A3006 RMK A01 T02970135  RH  039%=      5-min Rain = 0
KDVS 080215Z 19011KT 30/13 A3005 RMK A01 T02990128  RH  036%=      5-min Rain = 0
KDVS 080220Z 19010KT 30/13 A3006 RMK A01 T02960129  RH  037%=      5-min Rain = 0
KDVS 080225Z 20008KT 29/13 A3007 RMK A01 T02940130  RH  038%=      5-min Rain = 0
KDVS 080230Z 20006KT 29/13 A3008 RMK A01 T02920129  RH  038%=      5-min Rain = 0
KDVS 080235Z 32009G16KT 29/13 A301 RMK A01 T02900131  RH  039%=      5-min Rain = 0
KDVS 080240Z 33017G22KT 29/14 A301 RMK A01 T02850137  RH  042%=      5-min Rain = 0
KDVS 080245Z 33020G25KT 27/14 A301 RMK A01 T02740142  RH  046%=      5-min Rain = 0
KDVS 080250Z 34020G29KT 27/14 A3011 RMK A01 T02730140  RH  046%=      5-min Rain = 0
KDVS 080255Z 35014G20KT 27/14 A3012 RMK A01 T02710142  RH  047%=      5-min Rain = 0
KDVS 080300Z 36011G17KT 26/15 A3012 RMK A01 T02630149  RH  052%=      5-min Rain = 0
KDVS 080305Z 34008G13KT 26/15 A3012 RMK A01 T02600149  RH  053%=      5-min Rain = 0
KDVS 080310Z 32009KT 27/14 A3012 RMK A01 T02670142  RH  048%=      5-min Rain = 0
KDVS 080315Z 33007KT 27/14 A3013 RMK A01 T02720140  RH  046%=      5-min Rain = 0
KDVS 080320Z 31006KT 28/14 A3013 RMK A01 T02760135  RH  044%=      5-min Rain = 0
KDVS 080325Z 33007KT 28/13 A3013 RMK A01 T02810133  RH  042%=      5-min Rain = 0
KDVS 080330Z 34010KT 28/14 A3013 RMK A01 T02750140  RH  045%=      5-min Rain = 0
KDVS 080335Z 34009KT 26/15 A3013 RMK A01 T02620149  RH  052%=      5-min Rain = 0
KDVS 080340Z 35009KT 26/15 A3014 RMK A01 T02580150  RH  054%=      5-min Rain = 0
KDVS 080345Z 36009KT 26/15 A3015 RMK A01 T02550152  RH  055%=      5-min Rain = 0
KDVS 080350Z 01011KT 25/16 A3015 RMK A01 T02500156  RH  059%=      5-min Rain = 0
KDVS 080355Z 02011KT 24/16 A3015 RMK A01 T02430160  RH  063%=      5-min Rain = 0
KDVS 080400Z 01010G15KT 24/16 A3015 RMK A01 T02400164  RH  066%=      5-min Rain = 0
KDVS 080405Z 01011KT 24/16 A3015 RMK A01 T02390164  RH  066%=      5-min Rain = 0
KDVS 080410Z 00011KT 24/16 A3016 RMK A01 T02390164  RH  066%=      5-min Rain = 0
KDVS 080415Z 35012KT 24/16 A3016 RMK A01 T02380164  RH  066%=      5-min Rain = 0
KDVS 080420Z 34009KT 24/17 A3017 RMK A01 T02350168  RH  069%=      5-min Rain = 0
KDVS 080425Z 35009KT 23/17 A3017 RMK A01 T02330172  RH  072%=      5-min Rain = 0
KDVS 080430Z 35007KT 23/17 A3018 RMK A01 T02320171  RH  072%=      5-min Rain = 0
KDVS 080435Z 01009KT 23/18 A3017 RMK A01 T02280175  RH  076%=      5-min Rain = 0
KDVS 080440Z 01009KT 22/18 A3017 RMK A01 T02240178  RH  079%=      5-min Rain = 0
KDVS 080445Z 01006KT 23/18 A3017 RMK A01 T02250176  RH  078%=      5-min Rain = 0
KDVS 080450Z 35005KT 23/18 A3017 RMK A01 T02270175  RH  076%=      5-min Rain = 0
KDVS 080455Z 34003KT 23/17 A3017 RMK A01 T02300174  RH  074%=      5-min Rain = 0

Page generated in 0.0159 seconds.